Buchanan Corner, Indiana
Current Conditions -  °F | °C
As of 4:53 AM on Saturday 22 Nov 2014 (Local Time) from KHUF Reporting Station
Overcast Overcast  
Wind Chill: 34°   Ceiling: 5500
Heat Index: 40°   Visibility: 10mi
Dew Point: 30°   Wind: 8mph
Humidity: 68%   Direction: 180°S
Pressure: 30.21"   Gusts: NA
Location:  39.2016°N, 87.1874°W
Report Text: KHUF 220953Z 18007KT 10SM OVC055 04/M01 A3021 RMK AO2 SLP233 T00441011
Loading
Personal Weather Stations






























Interactive Weather Map New forecast layout! Learn more

10-Day Weather Forecast

Advertisements
Track Severe Weather on mobile